createdAt,value
2018-04-15T00:01:10.183Z,5.23
2018-04-15T00:03:37.755Z,4.90
2018-04-15T00:06:05.343Z,5.80
2018-04-15T00:08:32.889Z,5.27
2018-04-15T00:11:00.455Z,5.13
2018-04-15T00:13:28.284Z,6.07
2018-04-15T00:15:56.635Z,6.13
2018-04-15T00:18:24.187Z,7.63
2018-04-15T00:20:51.752Z,5.50
2018-04-15T00:23:19.304Z,6.20
2018-04-15T00:25:47.640Z,8.07
2018-04-15T00:28:15.184Z,6.70
2018-04-15T00:30:42.749Z,5.17
2018-04-15T00:33:10.295Z,5.60
2018-04-15T00:35:37.881Z,7.80
2018-04-15T00:38:06.213Z,8.53
2018-04-15T00:40:33.776Z,7.93
2018-04-15T00:43:01.561Z,6.43
2018-04-15T00:45:29.113Z,8.63
2018-04-15T00:47:56.678Z,6.63
2018-04-15T00:50:24.221Z,6.57
2018-04-15T00:52:51.783Z,8.00
2018-04-15T00:55:19.343Z,9.17
2018-04-15T00:57:46.914Z,12.57
2018-04-15T01:00:14.472Z,10.20
2018-04-15T01:02:42.866Z,10.43
2018-04-15T01:05:10.412Z,11.03
2018-04-15T01:07:37.977Z,10.20
2018-04-15T01:10:05.527Z,3.63
2018-04-15T01:12:33.861Z,7.17
2018-04-15T01:15:01.410Z,5.23
2018-04-15T01:17:28.977Z,8.90
2018-04-15T01:19:56.531Z,10.80
2018-04-15T01:22:24.864Z,10.17
2018-04-15T01:24:52.441Z,12.17
2018-04-15T01:27:20.036Z,12.10
2018-04-15T01:29:47.591Z,14.60
2018-04-15T01:32:15.156Z,15.67
2018-04-15T01:34:42.706Z,8.60
2018-04-15T01:37:10.273Z,8.13
2018-04-15T01:39:37.829Z,17.03
2018-04-15T01:42:06.170Z,12.80
2018-04-15T01:44:33.716Z,21.83
2018-04-15T01:47:01.263Z,13.80
2018-04-15T01:49:29.592Z,13.90
2018-04-15T01:51:57.146Z,16.67
2018-04-15T01:54:24.707Z,13.40
2018-04-15T01:56:52.264Z,14.50
2018-04-15T01:59:20.600Z,17.27
2018-04-15T02:01:48.147Z,17.40
2018-04-15T02:04:15.716Z,19.97
2018-04-15T02:06:43.259Z,22.90
2018-04-15T02:09:11.597Z,21.43
2018-04-15T02:11:39.150Z,18.67
2018-04-15T02:14:06.792Z,19.83
2018-04-15T02:16:34.331Z,21.73
2018-04-15T02:19:01.917Z,22.27
2018-04-15T02:21:29.467Z,25.87
2018-04-15T02:23:57.036Z,26.87
2018-04-15T02:26:24.593Z,24.13
2018-04-15T02:28:52.164Z,21.00
2018-04-15T02:31:19.714Z,25.67
2018-04-15T02:33:47.281Z,25.30
2018-04-15T02:36:14.836Z,21.73
2018-04-15T02:38:43.176Z,23.77
2018-04-15T02:41:10.734Z,24.83
2018-04-15T02:43:38.308Z,24.77
2018-04-15T02:46:05.873Z,21.53
2018-04-15T02:48:33.442Z,23.50
2018-04-15T02:51:01.008Z,21.97
2018-04-15T02:53:28.580Z,20.47
2018-04-15T02:55:56.134Z,21.00
2018-04-15T02:58:24.492Z,20.40
2018-04-15T03:00:52.036Z,18.73
2018-04-15T03:03:19.588Z,18.60
2018-04-15T03:05:47.162Z,18.03
2018-04-15T03:08:14.710Z,19.67
2018-04-15T03:10:43.048Z,19.47
2018-04-15T03:13:10.605Z,15.47
2018-04-15T03:15:38.180Z,11.30
2018-04-15T03:18:05.743Z,18.07
2018-04-15T03:20:33.316Z,12.00
2018-04-15T03:23:00.872Z,17.80
2018-04-15T03:25:28.448Z,20.83
2018-04-15T03:27:56.004Z,23.00
2018-04-15T03:30:24.347Z,25.10
2018-04-15T03:32:51.887Z,23.27
2018-04-15T03:35:19.459Z,25.27
2018-04-15T03:37:47.057Z,26.00
2018-04-15T03:40:14.623Z,24.20
2018-04-15T03:42:42.176Z,25.73
2018-04-15T03:45:09.748Z,27.40
2018-04-15T03:47:37.300Z,24.70
2018-04-15T03:50:04.876Z,26.20
2018-04-15T03:52:32.427Z,27.90
2018-04-15T03:55:00.768Z,30.90
2018-04-15T03:57:28.320Z,29.73
2018-04-15T03:59:55.890Z,23.40
2018-04-15T04:02:23.448Z,24.70
2018-04-15T04:04:51.764Z,33.20
2018-04-15T04:07:19.341Z,34.33
2018-04-15T04:09:46.907Z,31.20
2018-04-15T04:12:14.481Z,31.87
2018-04-15T04:14:42.064Z,34.97
2018-04-15T04:17:09.635Z,36.60
2018-04-15T04:19:49.093Z,33.80
2018-04-15T04:22:28.840Z,34.90
2018-04-15T04:25:05.187Z,34.90
2018-04-15T04:27:32.755Z,30.37
2018-04-15T04:30:01.083Z,29.70
2018-04-15T04:32:28.660Z,33.20
2018-04-15T04:34:56.201Z,33.23
2018-04-15T04:37:23.779Z,34.27
2018-04-15T04:39:51.329Z,34.60
2018-04-15T04:42:19.664Z,35.77
2018-04-15T04:44:47.216Z,34.70
2018-04-15T04:47:14.794Z,32.40
2018-04-15T04:49:42.349Z,36.10
2018-04-15T04:52:09.920Z,34.97
2018-04-15T04:54:37.474Z,34.37
2018-04-15T04:57:05.817Z,33.93
2018-04-15T04:59:33.388Z,35.30
2018-04-15T05:02:00.955Z,33.07
2018-04-15T05:04:28.503Z,33.33
2018-04-15T05:06:56.079Z,31.70
2018-04-15T05:09:23.633Z,35.40
2018-04-15T05:11:51.225Z,32.83
2018-04-15T05:14:18.776Z,31.50
2018-04-15T05:16:46.333Z,30.73
2018-04-15T05:19:14.672Z,32.47
2018-04-15T05:21:42.220Z,33.10
2018-04-15T05:24:09.791Z,30.73
2018-04-15T05:26:37.352Z,32.80
2018-04-15T05:29:04.925Z,29.07
2018-04-15T05:31:32.480Z,31.73
2018-04-15T05:34:00.816Z,31.63
2018-04-15T05:36:28.359Z,30.60
2018-04-15T05:38:55.938Z,29.27
2018-04-15T05:41:23.485Z,30.07
2018-04-15T05:43:51.820Z,32.60
2018-04-15T05:46:19.380Z,31.07
2018-04-15T05:48:46.955Z,27.47
2018-04-15T05:51:14.525Z,29.00
2018-04-15T05:53:42.108Z,28.70
2018-04-15T05:56:09.657Z,28.27
2018-04-15T05:58:37.228Z,27.10
2018-04-15T06:01:04.780Z,27.57
2018-04-15T06:03:33.107Z,29.77
2018-04-15T06:06:00.660Z,27.57
2018-04-15T06:08:28.240Z,28.67
2018-04-15T06:10:55.795Z,27.50
2018-04-15T06:13:23.368Z,28.20
2018-04-15T06:15:50.928Z,28.87
2018-04-15T06:18:19.259Z,29.40
2018-04-15T06:20:46.837Z,27.67
2018-04-15T06:23:15.224Z,27.63
2018-04-15T06:25:42.792Z,29.70
2018-04-15T06:28:10.355Z,28.47
2018-04-15T06:30:37.928Z,30.37
2018-04-15T06:33:05.481Z,29.87
2018-04-15T06:35:33.063Z,32.80
2018-04-15T06:38:00.614Z,30.90
2018-04-15T06:40:28.964Z,29.27
2018-04-15T06:42:56.570Z,28.20
2018-04-15T06:45:24.915Z,30.07
2018-04-15T06:47:52.471Z,27.90
2018-04-15T06:50:20.039Z,29.57
2018-04-15T06:52:47.597Z,29.03
2018-04-15T06:55:15.178Z,28.20
2018-04-15T06:57:42.732Z,27.63
2018-04-15T07:00:10.315Z,27.73
2018-04-15T07:02:37.877Z,28.47
2018-04-15T07:05:05.457Z,29.13
2018-04-15T07:07:33.007Z,27.63
2018-04-15T07:10:01.356Z,27.17
2018-04-15T07:12:28.917Z,27.73
2018-04-15T07:14:56.493Z,27.60
2018-04-15T07:17:24.052Z,26.77
2018-04-15T07:19:51.638Z,27.13
2018-04-15T07:22:19.208Z,27.10
2018-04-15T07:24:46.783Z,28.77
2018-04-15T07:27:14.367Z,27.57
2018-04-15T07:29:41.944Z,28.10
2018-04-15T07:32:09.499Z,27.43
2018-04-15T07:34:37.096Z,26.50
2018-04-15T07:37:04.659Z,24.47
2018-04-15T07:39:32.245Z,24.67
2018-04-15T07:41:59.799Z,24.97
2018-04-15T07:44:27.380Z,26.27
2018-04-15T07:46:54.936Z,25.33
2018-04-15T07:49:22.536Z,26.87
2018-04-15T07:51:50.083Z,26.93
2018-04-15T07:54:17.644Z,26.70
2018-04-15T07:56:45.220Z,25.53
2018-04-15T07:59:12.777Z,24.97
2018-04-15T08:01:40.452Z,24.57
2018-04-15T08:04:08.006Z,24.33
2018-04-15T08:06:35.585Z,24.03
2018-04-15T08:09:03.145Z,24.60
2018-04-15T08:11:30.735Z,22.20
2018-04-15T08:13:58.292Z,24.37
2018-04-15T08:16:26.120Z,23.37
2018-04-15T08:18:53.684Z,23.53
2018-04-15T08:21:21.269Z,23.23
2018-04-15T08:23:48.846Z,22.37
2018-04-15T08:26:17.357Z,21.63
2018-04-15T08:28:45.690Z,22.93
2018-04-15T08:31:13.273Z,24.60
2018-04-15T08:33:40.850Z,21.17
2018-04-15T08:36:08.436Z,20.97
2018-04-15T08:38:35.992Z,21.07
2018-04-15T08:41:04.344Z,21.70
2018-04-15T08:43:31.923Z,21.47
2018-04-15T08:45:59.506Z,18.17
2018-04-15T08:48:27.068Z,18.20
2018-04-15T08:50:54.649Z,19.13
2018-04-15T08:53:22.207Z,18.80
2018-04-15T08:55:49.870Z,20.10
2018-04-15T08:58:17.432Z,20.33
2018-04-15T09:00:45.805Z,19.90
2018-04-15T09:03:14.139Z,18.60
2018-04-15T09:05:41.712Z,18.43
2018-04-15T09:08:09.267Z,16.50
2018-04-15T09:10:36.850Z,15.93
2018-04-15T09:13:04.440Z,17.20
2018-04-15T09:15:32.032Z,16.80
2018-04-15T09:17:59.592Z,16.17
2018-04-15T09:20:27.167Z,14.47
2018-04-15T09:22:54.726Z,16.37
2018-04-15T09:25:22.319Z,16.00
2018-04-15T09:27:51.391Z,13.83
2018-04-15T09:30:18.960Z,15.80
2018-04-15T09:32:46.545Z,13.90
2018-04-15T09:35:14.152Z,10.93
2018-04-15T09:37:41.727Z,10.53
2018-04-15T09:40:09.284Z,10.50
2018-04-15T09:42:36.857Z,12.20
2018-04-15T09:45:04.421Z,14.80
2018-04-15T09:47:32.003Z,15.27
2018-04-15T09:49:59.568Z,10.53
2018-04-15T09:52:27.144Z,12.40
2018-04-15T09:54:54.696Z,11.73
2018-04-15T09:57:22.271Z,11.00
2018-04-15T09:59:50.596Z,12.37
2018-04-15T10:02:18.180Z,13.83
2018-04-15T10:04:46.498Z,13.10
2018-04-15T10:07:14.080Z,13.03
2018-04-15T10:09:41.637Z,13.90
2018-04-15T10:12:09.216Z,14.43
2018-04-15T10:14:36.776Z,14.07
2018-04-15T10:17:04.348Z,13.13
2018-04-15T10:19:31.996Z,12.93
2018-04-15T10:21:59.600Z,12.33
2018-04-15T10:24:27.151Z,13.20
2018-04-15T10:26:55.498Z,12.47
2018-04-15T10:29:23.062Z,12.00
2018-04-15T10:31:50.655Z,14.67
2018-04-15T10:34:18.216Z,11.20
2018-04-15T10:36:48.727Z,11.90
2018-04-15T10:39:16.333Z,11.37
2018-04-15T10:41:44.035Z,10.63
2018-04-15T10:44:11.585Z,11.13
2018-04-15T10:46:39.195Z,10.50
2018-04-15T10:49:07.515Z,9.03
2018-04-15T10:51:35.087Z,8.87
2018-04-15T10:54:02.656Z,9.00
2018-04-15T10:56:30.243Z,8.93
2018-04-15T10:58:57.802Z,8.70
2018-04-15T11:01:25.356Z,7.80
2018-04-15T11:03:52.959Z,8.20
2018-04-15T11:06:20.510Z,8.13
2018-04-15T11:08:48.084Z,7.17
2018-04-15T11:11:15.652Z,6.77
2018-04-15T11:13:43.224Z,6.53
2018-04-15T11:16:10.771Z,5.53
2018-04-15T11:18:39.101Z,6.23
2018-04-15T11:21:06.646Z,6.10
2018-04-15T11:23:34.220Z,5.93
2018-04-15T11:26:01.770Z,5.00
2018-04-15T11:28:30.108Z,5.80
2018-04-15T11:30:57.667Z,5.43
2018-04-15T11:33:25.236Z,5.87
2018-04-15T11:35:52.807Z,5.37
2018-04-15T11:38:20.416Z,5.80
2018-04-15T11:40:48.724Z,5.60
2018-04-15T11:43:16.298Z,5.10
2018-04-15T11:45:43.848Z,6.07
2018-04-15T11:48:12.188Z,5.37
2018-04-15T11:50:39.744Z,4.50
2018-04-15T11:53:08.095Z,3.97
2018-04-15T11:55:35.648Z,4.07
2018-04-15T11:58:03.220Z,4.30
2018-04-15T12:00:30.780Z,3.77
2018-04-15T12:02:58.345Z,3.47
2018-04-15T12:05:25.908Z,3.43
2018-04-15T12:07:53.476Z,3.80
2018-04-15T12:10:21.797Z,3.63
2018-04-15T12:12:49.479Z,3.07
2018-04-15T12:15:17.532Z,2.47
2018-04-15T12:17:45.111Z,2.90
2018-04-15T12:20:12.660Z,2.90
2018-04-15T12:22:41.079Z,3.23
2018-04-15T12:25:08.632Z,3.37
2018-04-15T12:27:36.222Z,3.50
2018-04-15T12:30:03.780Z,2.80
2018-04-15T12:32:31.358Z,3.03
2018-04-15T12:34:58.912Z,2.63
2018-04-15T12:37:26.483Z,2.87
2018-04-15T12:39:54.800Z,3.70
2018-04-15T12:42:22.356Z,2.90
2018-04-15T12:44:49.930Z,2.47
2018-04-15T12:47:17.485Z,3.00
2018-04-15T12:49:45.819Z,2.40
2018-04-15T12:52:13.372Z,3.03
2018-04-15T12:54:40.942Z,2.10
2018-04-15T12:57:08.784Z,2.50
2018-04-15T12:59:36.411Z,2.90
2018-04-15T13:02:03.955Z,2.27
2018-04-15T13:04:31.527Z,2.90
2018-04-15T13:06:59.082Z,3.10
2018-04-15T13:09:27.425Z,2.90
2018-04-15T13:11:54.979Z,2.70
2018-04-15T13:14:22.552Z,2.40
2018-04-15T13:16:50.099Z,2.20
2018-04-15T13:19:17.664Z,2.20
2018-04-15T13:21:45.985Z,2.63
2018-04-15T13:24:13.552Z,2.70
2018-04-15T13:26:41.669Z,2.23
2018-04-15T13:29:09.243Z,2.40
2018-04-15T13:31:36.804Z,2.47
2018-04-15T13:34:04.381Z,2.80
2018-04-15T13:36:31.937Z,2.07
2018-04-15T13:39:00.272Z,2.57
2018-04-15T13:41:28.583Z,3.00
2018-04-15T13:43:56.156Z,3.33
2018-04-15T13:46:24.464Z,3.10
2018-04-15T13:48:52.033Z,2.50
2018-04-15T13:51:19.596Z,3.50
2018-04-15T13:53:47.160Z,2.40
2018-04-15T13:56:14.715Z,1.80
2018-04-15T13:58:43.057Z,2.17
2018-04-15T14:01:11.377Z,3.10
2018-04-15T14:03:38.953Z,2.30
2018-04-15T14:06:06.508Z,2.63
2018-04-15T14:08:34.079Z,2.40
2018-04-15T14:11:02.412Z,2.47
2018-04-15T14:13:29.987Z,2.73
2018-04-15T14:15:57.548Z,2.27
2018-04-15T14:18:25.922Z,2.13
2018-04-15T14:20:53.467Z,2.70
2018-04-15T14:23:21.052Z,2.80
2018-04-15T14:25:48.600Z,2.50
2018-04-15T14:28:16.181Z,2.40
2018-04-15T14:30:43.754Z,1.80
2018-04-15T14:33:11.322Z,2.07
2018-04-15T14:35:38.905Z,2.00
2018-04-15T14:38:06.456Z,1.87
2018-04-15T14:40:34.033Z,2.60
2018-04-15T14:43:01.588Z,2.10
2018-04-15T14:45:29.268Z,2.80
2018-04-15T14:47:56.839Z,2.60
2018-04-15T14:50:24.397Z,2.23
2018-04-15T14:52:51.981Z,1.80
2018-04-15T14:55:19.529Z,2.23
2018-04-15T14:57:48.084Z,2.43
2018-04-15T15:00:15.668Z,2.13
2018-04-15T15:02:44.051Z,2.10
2018-04-15T15:05:11.609Z,2.27
2018-04-15T15:07:39.169Z,2.00
2018-04-15T15:10:06.761Z,2.20
2018-04-15T15:12:34.326Z,2.70
2018-04-15T15:15:01.897Z,2.20
2018-04-15T15:17:29.455Z,2.00
2018-04-15T15:19:57.036Z,2.27
2018-04-15T15:22:24.751Z,1.97
2018-04-15T15:24:53.133Z,1.87
2018-04-15T15:27:20.681Z,2.00
2018-04-15T15:29:48.256Z,2.27
2018-04-15T15:32:15.799Z,3.03
2018-04-15T15:34:44.139Z,1.90
2018-04-15T15:37:12.451Z,2.90
2018-04-15T15:39:40.030Z,2.73
2018-04-15T15:42:07.627Z,3.67
2018-04-15T15:44:35.240Z,2.13
2018-04-15T15:47:02.800Z,2.43
2018-04-15T15:49:31.168Z,2.93
2018-04-15T15:51:58.730Z,3.20
2018-04-15T15:54:26.437Z,2.43
2018-04-15T15:56:54.231Z,2.10
2018-04-15T15:59:22.110Z,2.07
2018-04-15T16:01:50.664Z,2.20
2018-04-15T16:04:19.308Z,2.47
2018-04-15T16:06:47.133Z,2.20
2018-04-15T16:09:16.035Z,2.67
2018-04-15T16:11:43.858Z,1.77
2018-04-15T16:14:12.675Z,2.10
2018-04-15T16:16:41.420Z,2.30
2018-04-15T16:19:09.181Z,2.53
2018-04-15T16:21:37.077Z,2.60
2018-04-15T16:24:05.660Z,1.97
2018-04-15T16:26:33.603Z,2.47
2018-04-15T16:29:02.566Z,2.30
2018-04-15T16:31:31.153Z,2.37
2018-04-15T16:33:59.762Z,2.07
2018-04-15T16:36:27.609Z,2.50
2018-04-15T16:38:55.518Z,2.63
2018-04-15T16:41:23.506Z,6.30
2018-04-15T16:43:51.460Z,9.77
2018-04-15T16:46:19.589Z,9.70
2018-04-15T16:48:47.584Z,3.90
2018-04-15T16:51:16.563Z,2.90
2018-04-15T16:53:44.748Z,2.57
2018-04-15T16:56:12.698Z,2.13
2018-04-15T16:58:40.604Z,2.37
2018-04-15T17:01:08.527Z,10.87
2018-04-15T17:03:36.437Z,16.70
2018-04-15T17:06:04.684Z,16.57
2018-04-15T17:08:32.502Z,19.23
2018-04-15T17:11:05.805Z,18.47
2018-04-15T17:13:33.499Z,19.07
2018-04-15T17:16:01.105Z,19.20
2018-04-15T17:18:28.663Z,19.23
2018-04-15T17:20:56.243Z,17.03
2018-04-15T17:23:23.797Z,17.73
2018-04-15T17:25:51.371Z,18.53
2018-04-15T17:28:18.931Z,17.30
2018-04-15T17:30:46.524Z,18.30
2018-04-15T17:33:14.079Z,18.30
2018-04-15T17:35:41.665Z,17.40
2018-04-15T17:38:09.221Z,17.30
2018-04-15T17:40:36.819Z,17.50
2018-04-15T17:43:04.411Z,18.40
2018-04-15T17:45:31.980Z,17.70
2018-04-15T17:48:00.304Z,18.53
2018-04-15T17:50:27.879Z,19.47
2018-04-15T17:52:55.474Z,18.20
2018-04-15T17:55:23.051Z,18.33
2018-04-15T17:57:51.381Z,18.93
2018-04-15T18:00:19.730Z,17.43
2018-04-15T18:02:48.056Z,18.93
2018-04-15T18:05:16.400Z,19.23
2018-04-15T18:07:44.720Z,18.23
2018-04-15T18:10:12.300Z,19.60
2018-04-15T18:12:39.865Z,19.77
2018-04-15T18:15:07.432Z,18.13
2018-04-15T18:17:35.018Z,19.33
2018-04-15T18:20:03.360Z,19.57
2018-04-15T18:22:33.073Z,20.40
2018-04-15T18:25:00.632Z,20.60
2018-04-15T18:27:28.212Z,20.53
2018-04-15T18:29:55.775Z,18.87
2018-04-15T18:32:23.352Z,19.87
2018-04-15T18:34:50.912Z,21.80
2018-04-15T18:37:18.531Z,21.90
2018-04-15T18:39:46.264Z,20.97
2018-04-15T18:42:13.898Z,21.73
2018-04-15T18:44:41.529Z,20.60
2018-04-15T18:47:09.342Z,20.90
2018-04-15T18:49:36.920Z,21.37
2018-04-15T18:52:04.524Z,21.50
2018-04-15T18:54:32.962Z,20.83
2018-04-15T18:57:00.559Z,20.57
2018-04-15T18:59:31.961Z,20.83
2018-04-15T19:01:59.560Z,20.67
2018-04-15T19:04:27.118Z,20.70
2018-04-15T19:06:54.694Z,19.77
2018-04-15T19:09:22.255Z,21.73
2018-04-15T19:11:50.085Z,19.90
2018-04-15T19:14:18.222Z,21.83
2018-04-15T19:16:47.390Z,21.20
2018-04-15T19:19:15.399Z,20.50
2018-04-15T19:21:49.226Z,19.97
2018-04-15T19:24:18.232Z,20.00
2018-04-15T19:26:47.838Z,23.57
2018-04-15T19:29:15.957Z,21.87
2018-04-15T19:31:44.046Z,22.20
2018-04-15T19:34:12.344Z,21.23
2018-04-15T19:36:40.389Z,22.27
2018-04-15T19:39:08.522Z,21.30
2018-04-15T19:41:37.462Z,21.33
2018-04-15T19:44:05.600Z,21.30
2018-04-15T19:46:34.506Z,22.10
2018-04-15T19:49:02.266Z,23.47
2018-04-15T19:51:30.538Z,23.20
2018-04-15T19:53:58.570Z,22.00
2018-04-15T19:56:27.559Z,25.07
2018-04-15T19:58:55.844Z,24.90
2018-04-15T20:01:23.874Z,24.60
2018-04-15T20:03:51.490Z,24.93
2018-04-15T20:06:19.051Z,25.57
2018-04-15T20:08:46.627Z,25.37
2018-04-15T20:11:14.196Z,24.40
2018-04-15T20:13:41.809Z,24.80
2018-04-15T20:16:09.357Z,26.50
2018-04-15T20:18:36.933Z,25.47
2018-04-15T20:21:04.496Z,24.13
2018-04-15T20:23:32.071Z,25.03
2018-04-15T20:26:00.053Z,25.17
2018-04-15T20:28:27.716Z,26.40
2018-04-15T20:30:55.537Z,25.60
2018-04-15T20:33:24.036Z,24.50
2018-04-15T20:35:52.671Z,24.13
2018-04-15T20:38:20.574Z,27.93
2018-04-15T20:40:48.461Z,28.30
2018-04-15T20:43:16.279Z,27.43
2018-04-15T20:45:44.830Z,27.90
2018-04-15T20:48:12.563Z,27.97
2018-04-15T20:50:40.411Z,26.93
2018-04-15T20:53:08.199Z,27.17
2018-04-15T20:55:36.054Z,27.50
2018-04-15T20:58:04.604Z,28.80
2018-04-15T21:00:32.394Z,26.87
2018-04-15T21:03:00.187Z,29.27
2018-04-15T21:05:28.004Z,26.67
2018-04-15T21:07:55.821Z,29.20
2018-04-15T21:10:23.701Z,26.30
2018-04-15T21:12:51.528Z,27.00
2018-04-15T21:15:19.364Z,27.77
2018-04-15T21:17:47.135Z,27.67
2018-04-15T21:20:14.979Z,27.27
2018-04-15T21:22:43.560Z,26.63
2018-04-15T21:25:11.427Z,27.90
2018-04-15T21:27:39.114Z,27.90
2018-04-15T21:30:07.679Z,26.40
2018-04-15T21:32:35.258Z,25.93
2018-04-15T21:35:02.820Z,27.93
2018-04-15T21:37:30.399Z,29.57
2018-04-15T21:39:57.953Z,27.60
2018-04-15T21:42:25.529Z,26.13
2018-04-15T21:44:53.079Z,29.00
2018-04-15T21:47:20.657Z,27.30
2018-04-15T21:49:48.217Z,26.27
2018-04-15T21:52:16.553Z,27.40
2018-04-15T21:54:44.104Z,27.37
2018-04-15T21:57:11.695Z,26.37
2018-04-15T21:59:39.244Z,26.10
2018-04-15T22:02:06.821Z,24.87
2018-04-15T22:04:34.378Z,26.43
2018-04-15T22:07:01.953Z,26.07
2018-04-15T22:09:29.499Z,26.53
2018-04-15T22:12:09.696Z,26.83
2018-04-15T22:14:37.253Z,27.80
2018-04-15T22:17:04.845Z,28.40
2018-04-15T22:19:32.409Z,29.13
2018-04-15T22:21:59.980Z,27.80
2018-04-15T22:24:27.533Z,27.97
2018-04-15T22:26:55.106Z,27.40
2018-04-15T22:29:23.428Z,26.70
2018-04-15T22:31:51.044Z,25.90
2018-04-15T22:34:18.600Z,26.43
2018-04-15T22:36:46.181Z,26.43
2018-04-15T22:39:13.744Z,26.93
2018-04-15T22:41:41.320Z,26.60
2018-04-15T22:44:11.223Z,27.53
2018-04-15T22:46:38.803Z,27.13
2018-04-15T22:52:09.347Z,27.97
2018-04-15T22:54:36.901Z,27.77
2018-04-15T22:57:10.875Z,26.80
2018-04-15T22:59:38.440Z,26.67
2018-04-15T23:02:05.996Z,27.30
2018-04-15T23:04:33.562Z,26.90
2018-04-15T23:07:01.116Z,26.93
2018-04-15T23:09:28.680Z,26.00
2018-04-15T23:11:57.010Z,28.50
2018-04-15T23:14:24.583Z,27.60
2018-04-15T23:16:52.140Z,27.17
2018-04-15T23:19:19.741Z,27.47
2018-04-15T23:21:47.298Z,27.77
2018-04-15T23:24:14.867Z,27.17
2018-04-15T23:26:43.126Z,27.07
2018-04-15T23:29:10.710Z,25.90
2018-04-15T23:31:38.272Z,29.30
2018-04-15T23:34:05.845Z,26.47
2018-04-15T23:36:33.395Z,28.37
2018-04-15T23:39:01.733Z,27.57
2018-04-15T23:41:29.287Z,29.53
2018-04-15T23:43:56.860Z,28.20
2018-04-15T23:46:24.412Z,27.60
2018-04-15T23:48:51.989Z,26.73
2018-04-15T23:51:19.547Z,29.33
2018-04-15T23:53:47.880Z,28.50
2018-04-15T23:56:15.432Z,29.00
2018-04-15T23:58:43.008Z,29.50
